Time;durP1;ratioP1;P1;durP2;ratioP2;P2;SDS_P1;SDS_P2;PMS_P1;PMS_P2;Temp;Humidity;BMP_temperature;BMP_pressure;BME280_temperature;BME280_humidity;BME280_pressure;Samples;Min_cycle;Max_cycle;Signal;HPM_P1;HPM_P2
2022/04/22 00:05:32;;;;;;;1999.90;999.90;;;;;;;12.25;68.55;100737.78;15552324;28;20062;-53
2022/04/22 00:13:06;;;;;;;1999.90;999.90;;;;;;;11.80;68.80;100746.06;15552715;28;20080;-58
2022/04/22 00:20:38;;;;;;;;;;;;;;;11.55;69.57;100736.66;15552165;28;20053;-57
2022/04/22 00:28:11;;;;;;;1999.90;999.90;;;;;;;11.27;68.78;100720.41;15521039;28;20023;-56
2022/04/22 00:35:44;;;;;;;1999.90;999.90;;;;;;;11.11;69.35;100708.19;15496482;28;20149;-56
2022/04/22 00:43:20;;;;;;;1999.90;999.90;;;;;;;11.29;68.35;100708.91;15535900;28;20535;-55
2022/04/22 00:50:52;;;;;;;1999.90;999.90;;;;;;;11.16;68.26;100707.19;15550290;28;20406;-54
2022/04/22 00:58:25;;;;;;;1999.90;999.90;;;;;;;10.54;69.28;100705.81;15515012;28;20579;-56
2022/04/22 01:13:49;;;;;;;1999.90;999.90;;;;;;;10.11;69.20;100694.72;15533208;28;20057;-53
2022/04/22 01:21:23;;;;;;;;;;;;;;;10.05;68.89;100684.88;15532861;28;20522;-56
2022/04/22 01:28:56;;;;;;;1999.90;999.90;;;;;;;9.99;69.25;100678.63;15549669;28;19971;-56
2022/04/22 01:36:29;;;;;;;1999.90;999.90;;;;;;;10.10;68.56;100666.00;15528220;28;20598;-59
2022/04/22 01:44:01;;;;;;;1999.90;999.90;;;;;;;9.79;69.09;100677.34;15530794;28;20407;-56
2022/04/22 01:51:38;;;;;;;1999.90;999.90;;;;;;;9.54;70.46;100670.63;15548129;28;20041;-56
2022/04/22 01:59:10;;;;;;;1999.90;999.90;;;;;;;9.28;70.55;100653.09;15550099;28;20038;-55
2022/04/22 02:06:44;;;;;;;1999.90;999.90;;;;;;;9.42;70.81;100664.91;15543137;28;20057;-55
2022/04/22 02:14:16;;;;;;;1999.90;999.90;;;;;;;9.57;69.61;100648.84;15557715;28;20050;-59
2022/04/22 02:21:50;;;;;;;1999.90;999.90;;;;;;;9.48;70.13;100652.47;15540168;28;20096;-60
2022/04/22 02:29:22;;;;;;;1999.90;999.90;;;;;;;9.59;70.28;100647.38;15557337;28;20038;-57
2022/04/22 02:36:56;;;;;;;1999.90;999.90;;;;;;;9.54;70.73;100639.19;15557481;28;20052;-55
2022/04/22 02:52:20;;;;;;;1999.90;999.90;;;;;;;9.37;70.83;100633.59;15538420;28;20048;-54
2022/04/22 02:59:52;;;;;;;1999.90;999.90;;;;;;;9.36;70.31;100610.50;15537195;28;20490;-56
2022/04/22 03:07:25;;;;;;;1999.90;999.90;;;;;;;9.42;70.64;100611.16;15554241;28;20042;-57
2022/04/22 03:14:58;;;;;;;1999.90;999.90;;;;;;;9.02;72.33;100593.78;15536596;28;20061;-57
2022/04/22 03:22:32;;;;;;;1999.90;999.90;;;;;;;9.01;72.82;100597.72;15552982;28;20124;-57
2022/04/22 03:30:05;;;;;;;1999.90;999.90;;;;;;;9.16;72.48;100598.03;15535773;28;20049;-56
2022/04/22 03:37:38;;;;;;;1999.90;999.90;;;;;;;8.87;73.47;100609.81;15526384;28;20530;-59
2022/04/22 03:45:11;;;;;;;;;;;;;;;8.91;73.13;100605.22;15536449;28;20054;-56
2022/04/22 03:52:45;;;;;;;1999.90;999.90;;;;;;;9.01;73.23;100598.53;15554002;28;19925;-64
2022/04/22 04:00:17;;;;;;;1999.90;999.90;;;;;;;9.06;72.51;100606.72;15534599;28;20046;-57
2022/04/22 04:07:50;;;;;;;1999.90;999.90;;;;;;;9.36;71.89;100587.41;15518290;28;20142;-57
2022/04/22 04:23:16;;;;;;;1999.90;999.90;;;;;;;9.57;70.39;100601.47;15540444;28;20054;-55
2022/04/22 04:30:48;;;;;;;1999.90;999.90;;;;;;;9.22;72.01;100610.66;15548188;28;20562;-53
2022/04/22 04:38:22;;;;;;;1999.90;999.90;;;;;;;8.95;72.96;100602.59;15548204;28;20042;-53
2022/04/22 04:46:01;;;;;;;1999.90;999.90;;;;;;;9.18;72.29;100604.13;15517735;23;20129;-53
2022/04/22 04:53:35;;;;;;;1999.90;999.90;;;;;;;9.05;73.13;100607.84;15553926;28;20046;-57
2022/04/22 05:01:11;;;;;;;1999.90;999.90;;;;;;;9.14;72.85;100600.34;15548336;28;20042;-53
2022/04/22 05:08:44;;;;;;;1999.90;999.90;;;;;;;9.34;72.54;100601.66;15531345;28;20057;-55
2022/04/22 05:16:17;;;;;;;;;;;;;;;9.97;70.15;100597.31;15517995;28;20145;-59
2022/04/22 05:23:51;;;;;;;1999.90;999.90;;;;;;;9.78;71.10;100592.13;15454234;28;19922;-58
2022/04/22 05:39:14;;;;;;;1999.90;999.90;;;;;;;9.59;70.64;100607.53;15495000;28;20058;-58
2022/04/22 05:46:46;;;;;;;1999.90;999.90;;;;;;;10.40;69.53;100613.94;15482152;28;20448;-58
2022/04/22 05:54:20;;;;;;;1999.90;999.90;;;;;;;10.74;68.85;100608.56;15464206;28;20479;-58
2022/04/22 06:01:52;;;;;;;;;;;;;;;11.61;65.19;100603.97;15497099;28;20078;-54
2022/04/22 06:17:15;;;;;;;1999.90;999.90;;;;;;;12.85;62.48;100587.88;15458493;28;20058;-57
2022/04/22 06:24:52;;;;;;;1999.90;999.90;;;;;;;12.74;61.46;100597.13;15435795;28;20057;-56
2022/04/22 06:32:27;;;;;;;1999.90;999.90;;;;;;;12.32;62.26;100594.53;15416043;28;20138;-57
2022/04/22 06:47:51;;;;;;;1999.90;999.90;;;;;;;15.21;58.49;100592.31;15466013;28;20038;-57
2022/04/22 06:55:26;;;;;;;1999.90;999.90;;;;;;;14.62;54.74;100608.22;15437930;28;20200;-55
2022/04/22 07:02:59;;;;;;;1999.90;999.90;;;;;;;16.50;53.57;100601.34;15474373;28;20583;-50
2022/04/22 07:10:33;;;;;;;1999.90;999.90;;;;;;;14.98;55.17;100612.69;15459442;28;20130;-55
2022/04/22 07:18:07;;;;;;;1999.90;999.90;;;;;;;15.33;55.65;100609.06;15398644;28;20110;-53
2022/04/22 07:25:46;;;;;;;1999.90;999.90;;;;;;;16.00;53.09;100606.88;15449053;28;20116;-51
2022/04/22 07:33:19;;;;;;;1999.90;999.90;;;;;;;15.64;53.79;100604.53;15474559;28;20042;-58
2022/04/22 07:40:53;;;;;;;1999.90;999.90;;;;;;;16.38;50.92;100599.53;15472880;28;20054;-51
2022/04/22 07:48:26;;;;;;;1999.90;999.90;;;;;;;15.35;52.76;100609.53;15456346;28;20076;-56
2022/04/22 07:56:00;;;;;;;1999.90;999.90;;;;;;;15.56;53.68;100620.41;15472284;28;20050;-53
2022/04/22 08:03:32;;;;;;;1999.90;999.90;;;;;;;14.67;54.01;100619.16;15489059;28;20073;-51
2022/04/22 08:11:05;;;;;;;1999.90;999.90;;;;;;;16.19;50.93;100616.47;15489972;28;20057;-59
2022/04/22 08:18:37;;;;;;;;;;;;;;;15.85;51.59;100619.84;15490183;28;20053;-57
2022/04/22 08:26:13;;;;;;;1999.90;999.90;;;;;;;17.56;48.30;100603.00;15489364;28;20255;-60
2022/04/22 08:33:48;;;;;;;1999.90;999.90;;;;;;;15.90;52.99;100603.84;15490274;28;20391;-56
2022/04/22 08:41:22;;;;;;;1999.90;999.90;;;;;;;15.96;54.15;100602.38;15487633;28;20077;-58
2022/04/22 08:56:50;;;;;;;1999.90;999.90;;;;;;;15.62;53.66;100593.63;15469372;28;20050;-59
2022/04/22 09:04:22;;;;;;;1999.90;999.90;;;;;;;15.41;54.81;100593.97;15415455;28;20086;-58
2022/04/22 09:12:06;;;;;;;1999.90;999.90;;;;;;;15.79;55.51;100589.56;15478078;28;20103;-58
2022/04/22 09:19:42;;;;;;;1999.90;999.90;;;;;;;15.49;55.12;100570.44;15492530;28;20495;-59
2022/04/22 09:27:16;;;;;;;1999.90;999.90;;;;;;;15.88;55.73;100565.66;15508707;28;20054;-52
2022/04/22 09:34:48;;;;;;;1999.90;999.90;;;;;;;15.93;55.42;100570.16;15471249;28;20113;-55
2022/04/22 09:42:39;;;;;;;1999.90;999.90;;;;;;;15.84;56.78;100570.41;15463111;28;20046;-60
2022/04/22 09:50:14;;;;;;;1999.90;999.90;;;;;;;15.20;57.99;100571.81;15444070;28;20089;-59
2022/04/22 09:57:55;;;;;;;1999.90;999.90;;;;;;;15.52;57.64;100566.88;15489977;28;20042;-60
2022/04/22 10:05:31;;;;;;;1999.90;999.90;;;;;;;15.72;57.80;100566.91;15497525;28;20270;-60
2022/04/22 10:13:05;;;;;;;1999.90;999.90;;;;;;;14.97;59.10;100565.28;15473857;28;20050;-60
2022/04/22 10:20:38;;;;;;;1999.90;999.90;;;;;;;14.86;60.51;100562.22;15452029;28;20193;-56
2022/04/22 10:28:13;;;;;;;1999.90;999.90;;;;;;;14.44;61.34;100550.75;15456253;28;20117;-59
2022/04/22 10:35:47;;;;;;;1999.90;999.90;;;;;;;14.39;61.61;100551.03;15453644;28;20046;-58
2022/04/22 10:43:21;;;;;;;1999.90;999.90;;;;;;;14.57;61.53;100559.91;15474400;28;20411;-58
2022/04/22 10:50:58;;;;;;;1999.90;999.90;;;;;;;14.92;60.98;100563.59;15556628;23;20273;-61
2022/04/22 10:58:32;;;;;;;1999.90;999.90;;;;;;;14.56;61.78;100561.09;15561759;28;20050;-60
2022/04/22 11:06:07;;;;;;;1999.90;999.90;;;;;;;14.89;61.51;100563.50;15542903;28;20525;-62
2022/04/22 11:13:43;;;;;;;1999.90;999.90;;;;;;;15.22;60.86;100575.09;15561187;28;20050;-61
2022/04/22 11:21:43;;;;;;;1999.90;999.90;;;;;;;14.66;61.82;100569.78;15559673;28;20038;-63
2022/04/22 11:29:17;;;;;;;1999.90;999.90;;;;;;;14.19;63.24;100566.16;15527110;28;20042;-63
2022/04/22 11:36:50;;;;;;;;;;;;;;;14.18;63.75;100573.75;15540134;28;20108;-62
2022/04/22 11:44:23;;;;;;;;;;;;;;;13.89;66.88;100585.38;15558463;28;19925;-61
2022/04/22 11:51:56;;;;;;;1999.90;999.90;;;;;;;13.71;68.88;100577.28;15572414;28;19933;-61
2022/04/22 11:59:29;;;;;;;1999.90;999.90;;;;;;;14.07;69.31;100584.72;15554170;28;20042;-64
2022/04/22 12:08:00;;;;;;;1999.90;999.90;;;;;;;13.81;71.20;100587.16;15525323;28;20050;-63
2022/04/22 12:15:02;;;;;;;1553.57;782.80;;;;;;;13.98;71.32;100584.06;15513521;28;20046;-62
2022/04/22 12:22:36;;;;;;;386.50;341.30;;;;;;;14.46;71.85;100586.91;15543968;28;20100;-61
2022/04/22 12:30:10;;;;;;;1544.55;783.13;;;;;;;13.93;72.69;100589.09;15495190;28;20047;-61
2022/04/22 12:37:46;;;;;;;326.17;292.75;;;;;;;14.48;71.99;100581.75;15494447;28;20057;-63
2022/04/22 13:01:18;;;;;;;1999.90;999.90;;;;;;;14.97;69.85;100568.91;15951387;27;20138;-62
2022/04/22 13:08:51;;;;;;;1999.90;999.90;;;;;;;15.21;68.20;100553.78;15896374;22;20128;-59
2022/04/22 13:16:25;;;;;;;1999.90;999.90;;;;;;;15.80;66.15;100537.75;15662525;28;20037;-59
2022/04/22 13:23:57;;;;;;;1999.90;999.90;;;;;;;15.83;63.98;100531.38;15662391;28;20390;-62
2022/04/22 13:31:31;;;;;;;1999.90;999.90;;;;;;;16.02;62.15;100525.69;15660544;28;20576;-61
2022/04/22 13:39:04;;;;;;;1999.90;999.90;;;;;;;16.47;58.22;100521.25;15660541;28;20071;-61
2022/04/22 13:54:32;;;;;;;1999.90;999.90;;;;;;;16.00;57.77;100524.44;15609851;28;20049;-62
2022/04/22 14:02:06;;;;;;;1999.90;999.90;;;;;;;15.73;58.66;100512.28;15660096;28;20128;-62
2022/04/22 14:09:38;;;;;;;1999.90;999.90;;;;;;;16.00;58.02;100525.25;15634138;28;20037;-62
2022/04/22 14:17:13;;;;;;;1999.90;999.90;;;;;;;16.71;57.06;100528.50;15616198;28;20482;-61
2022/04/22 14:24:49;;;;;;;1999.90;999.90;;;;;;;16.51;56.10;100526.94;15616607;28;20443;-62
2022/04/22 14:32:22;;;;;;;1999.90;999.90;;;;;;;16.65;56.28;100544.06;15599203;28;20144;-62
2022/04/22 14:39:55;;;;;;;1999.90;999.90;;;;;;;16.68;55.28;100532.06;15614528;28;20105;-62
2022/04/22 14:47:29;;;;;;;1999.90;999.90;;;;;;;16.46;55.87;100530.88;15613026;28;20483;-60
2022/04/22 14:55:01;;;;;;;1999.90;999.90;;;;;;;16.66;54.63;100529.56;15613684;28;20401;-61
2022/04/22 15:02:34;;;;;;;1999.90;999.90;;;;;;;16.27;55.86;100526.16;15613013;28;20045;-61
2022/04/22 15:10:08;;;;;;;1999.90;999.90;;;;;;;15.72;58.04;100533.97;15613829;28;20042;-62
2022/04/22 15:25:32;;;;;;;1999.90;999.90;;;;;;;15.75;58.64;100530.44;15613007;28;20064;-58
2022/04/22 15:33:05;;;;;;;1999.90;999.90;;;;;;;15.37;59.22;100533.25;15607811;28;20057;-63
2022/04/22 15:40:38;;;;;;;1999.90;999.90;;;;;;;15.84;58.41;100530.19;15605847;28;20042;-58
2022/04/22 15:48:11;;;;;;;1999.90;999.90;;;;;;;15.68;57.65;100521.03;15593476;28;20060;-59
2022/04/22 15:55:43;;;;;;;1999.90;999.90;;;;;;;15.51;57.54;100520.28;15611197;28;20052;-57
2022/04/22 16:03:17;;;;;;;1999.90;999.90;;;;;;;15.72;57.04;100516.28;15609553;28;20057;-56
2022/04/22 16:10:50;;;;;;;1999.90;999.90;;;;;;;15.50;57.74;100518.66;15611756;28;20092;-57
2022/04/22 16:18:23;;;;;;;1999.90;999.90;;;;;;;15.49;58.12;100519.84;15610089;28;20073;-57
2022/04/22 16:25:56;;;;;;;1999.90;999.90;;;;;;;15.35;57.79;100530.00;15610628;28;20049;-56
2022/04/22 16:33:29;;;;;;;1999.90;999.90;;;;;;;15.34;57.10;100540.41;15609950;28;20167;-59
2022/04/22 16:41:02;;;;;;;1999.90;999.90;;;;;;;15.52;57.32;100533.16;15609953;28;20076;-59
2022/04/22 16:48:36;;;;;;;1999.90;999.90;;;;;;;15.37;57.37;100534.06;15607989;28;20044;-61
2022/04/22 16:56:09;;;;;;;1999.90;999.90;;;;;;;15.37;57.19;100538.84;15609951;28;20068;-58
2022/04/22 17:03:42;;;;;;;1999.90;999.90;;;;;;;15.48;57.06;100543.50;15590928;28;20049;-59
2022/04/22 17:11:14;;;;;;;;;;;;;;;15.23;57.21;100565.50;15608294;28;20433;-55
2022/04/22 17:26:41;;;;;;;1999.90;999.90;;;;;;;15.12;57.32;100580.50;15607244;28;20477;-60
2022/04/22 17:34:15;;;;;;;1999.90;999.90;;;;;;;14.98;55.77;100581.78;15607444;28;20093;-55
2022/04/22 17:41:47;;;;;;;1999.90;999.90;;;;;;;14.83;55.02;100591.06;15608969;28;20049;-54
2022/04/22 17:49:22;;;;;;;1999.90;999.90;;;;;;;14.87;54.84;100593.94;15616604;28;20042;-54
2022/04/22 17:56:54;;;;;;;1999.90;999.90;;;;;;;14.64;55.54;100602.22;15617026;28;20471;-58
2022/04/22 18:04:28;;;;;;;1999.90;999.90;;;;;;;14.62;55.57;100613.81;15618307;28;20053;-56
2022/04/22 18:12:01;;;;;;;1999.90;999.90;;;;;;;14.68;55.86;100620.78;15604649;28;20049;-57
2022/04/22 18:19:35;;;;;;;1999.90;999.90;;;;;;;14.42;54.98;100640.13;15615886;28;20396;-54
2022/04/22 18:27:08;;;;;;;1999.90;999.90;;;;;;;14.18;54.69;100657.94;15617770;28;20064;-61
2022/04/22 18:34:42;;;;;;;1999.90;999.90;;;;;;;14.29;53.22;100663.84;15615751;28;20049;-58
2022/04/22 18:42:14;;;;;;;1999.90;999.90;;;;;;;14.20;50.61;100671.63;15598494;28;20136;-52
2022/04/22 18:49:48;;;;;;;1999.90;999.90;;;;;;;14.23;49.90;100680.13;15616177;28;20156;-54
2022/04/22 18:57:20;;;;;;;1999.90;999.90;;;;;;;14.30;49.11;100665.47;15614560;28;20045;-56
2022/04/22 19:04:54;;;;;;;1999.90;999.90;;;;;;;13.99;49.58;100669.84;15615531;28;20053;-57
2022/04/22 19:12:26;;;;;;;;;;;;;;;14.03;49.44;100675.53;15697626;22;20143;-61
2022/04/22 19:20:03;;;;;;;1999.90;999.90;;;;;;;13.81;50.02;100685.34;15735093;28;19924;-62
2022/04/22 19:27:35;;;;;;;1999.90;999.90;;;;;;;13.44;50.97;100687.41;15772438;28;20044;-61
2022/04/22 19:35:09;;;;;;;1999.90;999.90;;;;;;;13.34;51.67;100679.47;15807406;28;20377;-62
2022/04/22 19:42:42;;;;;;;1999.90;999.90;;;;;;;13.14;52.40;100684.84;15806246;28;20115;-62
2022/04/22 19:50:16;;;;;;;1999.90;999.90;;;;;;;13.00;53.46;100684.38;15787554;28;20416;-62
2022/04/22 19:57:48;;;;;;;1999.90;999.90;;;;;;;12.90;53.45;100677.25;15805010;28;20143;-62
2022/04/22 20:05:25;;;;;;;1999.90;999.90;;;;;;;12.75;54.21;100685.53;15786649;28;20050;-62
2022/04/22 20:13:00;;;;;;;1999.90;999.90;;;;;;;12.75;54.82;100683.56;15804279;28;20484;-62
2022/04/22 20:20:33;;;;;;;1999.90;999.90;;;;;;;12.76;54.97;100682.38;15773215;28;20130;-62
2022/04/22 20:28:06;;;;;;;1999.90;999.90;;;;;;;12.66;55.73;100686.47;15741144;28;20044;-62
2022/04/22 20:43:30;;;;;;;1999.90;999.90;;;;;;;12.53;56.62;100681.19;15720065;28;20036;-63
2022/04/22 20:51:03;;;;;;;1999.90;999.90;;;;;;;12.49;56.91;100681.06;15761112;28;20413;-62
2022/04/22 20:58:36;;;;;;;1999.90;999.90;;;;;;;12.18;57.72;100684.34;15801394;28;20048;-62
2022/04/22 21:06:10;;;;;;;1999.90;999.90;;;;;;;12.13;58.04;100687.38;15730826;28;20094;-62
2022/04/22 21:13:43;;;;;;;1999.90;999.90;;;;;;;11.94;58.62;100687.88;15738921;28;20557;-62
2022/04/22 21:21:17;;;;;;;1999.90;999.90;;;;;;;11.87;58.97;100695.19;15784718;28;20046;-62
2022/04/22 21:28:49;;;;;;;1999.90;999.90;;;;;;;11.76;59.29;100701.16;15814212;28;20075;-62
2022/04/22 21:36:23;;;;;;;1999.90;999.90;;;;;;;11.42;60.45;100695.84;15814512;28;20052;-62
2022/04/22 21:43:55;;;;;;;1999.90;999.90;;;;;;;11.10;61.19;100703.75;15795719;28;20481;-62
2022/04/22 21:51:30;;;;;;;1999.90;999.90;;;;;;;11.02;62.11;100712.97;15809356;28;20067;-62
2022/04/22 21:59:03;;;;;;;1999.90;999.90;;;;;;;11.28;61.53;100707.28;15750929;28;20064;-61
2022/04/22 22:06:37;;;;;;;1999.90;999.90;;;;;;;10.93;62.56;100698.25;15752055;28;20041;-64
2022/04/22 22:14:10;;;;;;;1999.90;999.90;;;;;;;10.76;63.24;100710.31;15760052;28;20068;-62
2022/04/22 22:21:46;;;;;;;1999.90;999.90;;;;;;;10.69;63.28;100715.59;15752181;28;20123;-62
2022/04/22 22:29:19;;;;;;;;;;;;;;;10.68;63.33;100714.78;15733106;28;20041;-62
2022/04/22 22:36:53;;;;;;;1999.90;999.90;;;;;;;10.56;64.04;100711.06;15715464;28;20369;-62
2022/04/22 22:44:25;;;;;;;;;;;;;;;10.42;64.56;100711.25;15749775;28;20051;-61
2022/04/22 22:51:59;;;;;;;1999.90;999.90;;;;;;;10.23;64.72;100705.22;15749995;28;19920;-63
2022/04/22 22:59:31;;;;;;;1999.90;999.90;;;;;;;10.29;64.08;100707.50;15748887;28;20049;-62
2022/04/22 23:07:05;;;;;;;1999.90;999.90;;;;;;;10.17;64.22;100698.97;15748131;28;20052;-62
2022/04/22 23:14:37;;;;;;;;;;;;;;;10.22;63.42;100690.47;15748770;28;20051;-62
2022/04/22 23:22:12;;;;;;;1999.90;999.90;;;;;;;10.19;63.86;100705.03;15729015;28;19920;-63
2022/04/22 23:29:44;;;;;;;1999.90;999.90;;;;;;;9.90;64.66;100690.94;15728497;28;20044;-61
2022/04/22 23:37:18;;;;;;;1999.90;999.90;;;;;;;9.76;65.12;100696.69;15747366;28;20079;-61
2022/04/22 23:44:51;;;;;;;1999.90;999.90;;;;;;;9.64;64.83;100693.75;15726430;28;20474;-64
2022/04/22 23:52:25;;;;;;;1999.90;999.90;;;;;;;9.63;65.16;100690.16;15756353;28;20100;-63
2022/04/22 23:59:57;;;;;;;1999.90;999.90;;;;;;;9.35;65.84;100691.59;15786903;28;20119;-63
